EGPFEGNC

Guest
Details From EGPF - Glasgow
To EGNC - Carlisle
Flight Number -
Tags generated
Created
Modified
Stats Distance 79 nm / 146 km
Max Altitude 3,100 ft / 945 m
Waypoints 3
Social Downloads 0
Likes 0
Share VATSIM

Download

Looking for another format? Having issues loading an existing format? Contact us
Advertisement - Login to hide

Notes

Basic altitude profile: - Ascent Rate: 1500ft/min - Ascent Speed: 180kts - Cruise Altitude: 19500ft - Cruise Speed: 180kts - Descent Rate: 1500ft/min - Descent Speed: 160kts Options: - Use NATs: yes - Use PACOTS: yes - Use low airways: yes - Use high airways: yes

Route

EGPF TLA24 EGNC

ID Type Via Altitude Latitude Longitude Leg Dist Tot Dist Heading (true) Name
O EGPF APT - 0 ft / 0 m 55.87173˚ -4.43365˚ - 0 nm - Glasgow
TLA24 FIX - 3,100 ft / 945 m 55.12778˚ -3.07861˚ 64 nm 64 nm 134° / 135° -
O EGNC APT - 0 ft / 0 m 54.93832˚ -2.81013˚ 14 nm 78 nm 141° / 141° Carlisle

Altitude Profile

Advertisement - Login to hide

EGPF

Details ICAO EGPF (GLA)
Name Glasgow
Region United Kingdom
Timezone Europe/London (UTC+0.0)
Stats Elevation 26 ft / 8 m (AMSL)
Location 55.871728° -4.433648°
Runways 1
Magnetic Variation 2.730° W

METAR

EGPF 171220Z AUTO 25010KT 9999 FEW013 SCT021 BKN029 10/09 Q1010

Decode

TAF

TAF AMD TAF AMD EGPF 171158Z 1712/1812 22012KT 6000 -RADZ BKN008 BECMG 1712/1714 28012KT 9999 NSW FEW025 BECMG 1715/1718 VRB05KT PROB30 1800/1809 4000 BR

Decode

Departure Runways

ID Width Length Bearing (true) Bearing (mag) Surface Threshold Offset Overrun Length
05 151 ft / 46 m 8,721 ft / 2,658 m 46.34° 49.07° Asphalt 0 ft / 0 m 499 ft / 152 m
23 151 ft / 46 m 8,721 ft / 2,658 m 226.37° 229.10° Asphalt 1,004 ft / 306 m 0 ft / 0 m

EGNC

Details ICAO EGNC (CAX)
Name Carlisle
Region United Kingdom
Timezone Europe/London (UTC+0.0)
Stats Elevation 190 ft / 58 m (AMSL)
Location 54.938323° -2.810132°
Runways 2
Magnetic Variation 1.906° W

METAR

EGNC 171220Z 20010KT 9999 FEW012 BKN017 05/05 Q1012

Decode

TAF

Not found

Destination Runways

ID Width Length Bearing (true) Bearing (mag) Surface Threshold Offset Overrun Length
01 75 ft / 23 m 3,045 ft / 928 m 1.13° 3.04° Asphalt 0 ft / 0 m 0 ft / 0 m
07 98 ft / 30 m 5,969 ft / 1,819 m 59.39° 61.30° Asphalt 1,493 ft / 455 m 0 ft / 0 m
19 75 ft / 23 m 3,045 ft / 928 m 181.13° 183.04° Asphalt 420 ft / 128 m 0 ft / 0 m
25 98 ft / 30 m 5,969 ft / 1,819 m 239.41° 241.32° Asphalt 781 ft / 238 m 0 ft / 0 m

Popular Alternatives